sensor_id;sensor_type;location;lat;lon;timestamp;P1;durP1;ratioP1;P2;durP2;ratioP2
48203;SDS011;33994;50.998;5.864;2022-10-29T00:01:15;19.05;;;7.70;;
48203;SDS011;33994;50.998;5.864;2022-10-29T00:04:00;21.50;;;7.72;;
48203;SDS011;33994;50.998;5.864;2022-10-29T00:06:46;21.70;;;8.40;;
48203;SDS011;33994;50.998;5.864;2022-10-29T00:09:32;19.17;;;7.93;;
48203;SDS011;33994;50.998;5.864;2022-10-29T00:12:18;16.45;;;7.18;;
48203;SDS011;33994;50.998;5.864;2022-10-29T00:15:04;20.27;;;7.63;;
48203;SDS011;33994;50.998;5.864;2022-10-29T00:17:49;18.13;;;6.80;;
48203;SDS011;33994;50.998;5.864;2022-10-29T00:20:34;16.33;;;7.20;;
48203;SDS011;33994;50.998;5.864;2022-10-29T00:23:20;21.23;;;8.88;;
48203;SDS011;33994;50.998;5.864;2022-10-29T00:26:06;23.77;;;9.10;;
48203;SDS011;33994;50.998;5.864;2022-10-29T00:28:52;29.05;;;10.95;;
48203;SDS011;33994;50.998;5.864;2022-10-29T00:31:38;19.38;;;8.05;;
48203;SDS011;33994;50.998;5.864;2022-10-29T00:34:23;24.10;;;9.63;;
48203;SDS011;33994;50.998;5.864;2022-10-29T00:37:09;19.10;;;7.47;;
48203;SDS011;33994;50.998;5.864;2022-10-29T00:39:54;22.73;;;7.35;;
48203;SDS011;33994;50.998;5.864;2022-10-29T00:42:40;17.38;;;7.15;;
48203;SDS011;33994;50.998;5.864;2022-10-29T00:45:25;17.38;;;7.18;;
48203;SDS011;33994;50.998;5.864;2022-10-29T00:48:11;21.23;;;9.02;;
48203;SDS011;33994;50.998;5.864;2022-10-29T00:50:56;18.75;;;7.80;;
48203;SDS011;33994;50.998;5.864;2022-10-29T00:53:46;21.52;;;8.07;;
48203;SDS011;33994;50.998;5.864;2022-10-29T00:56:40;22.38;;;7.22;;
48203;SDS011;33994;50.998;5.864;2022-10-29T00:59:28;21.92;;;8.00;;
48203;SDS011;33994;50.998;5.864;2022-10-29T01:02:14;18.83;;;7.47;;
48203;SDS011;33994;50.998;5.864;2022-10-29T01:04:59;26.35;;;8.75;;
48203;SDS011;33994;50.998;5.864;2022-10-29T01:10:37;17.20;;;6.63;;
48203;SDS011;33994;50.998;5.864;2022-10-29T01:32:59;23.25;;;7.88;;
48203;SDS011;33994;50.998;5.864;2022-10-29T01:39:00;18.85;;;8.30;;
48203;SDS011;33994;50.998;5.864;2022-10-29T01:42:01;20.33;;;7.50;;
48203;SDS011;33994;50.998;5.864;2022-10-29T01:44:48;20.02;;;8.02;;
48203;SDS011;33994;50.998;5.864;2022-10-29T01:47:42;20.17;;;7.97;;
48203;SDS011;33994;50.998;5.864;2022-10-29T01:50:37;25.55;;;8.15;;
48203;SDS011;33994;50.998;5.864;2022-10-29T01:53:26;28.00;;;9.68;;
48203;SDS011;33994;50.998;5.864;2022-10-29T01:56:14;21.00;;;8.75;;
48203;SDS011;33994;50.998;5.864;2022-10-29T01:58:59;16.33;;;8.55;;
48203;SDS011;33994;50.998;5.864;2022-10-29T02:11:47;23.40;;;7.82;;
48203;SDS011;33994;50.998;5.864;2022-10-29T02:14:47;21.88;;;7.75;;
48203;SDS011;33994;50.998;5.864;2022-10-29T02:17:36;18.48;;;7.85;;
48203;SDS011;33994;50.998;5.864;2022-10-29T02:20:22;21.73;;;7.60;;
48203;SDS011;33994;50.998;5.864;2022-10-29T02:23:07;19.35;;;7.53;;
48203;SDS011;33994;50.998;5.864;2022-10-29T02:25:53;16.97;;;7.00;;
48203;SDS011;33994;50.998;5.864;2022-10-29T02:28:39;18.33;;;7.55;;
48203;SDS011;33994;50.998;5.864;2022-10-29T02:31:24;23.50;;;7.95;;
48203;SDS011;33994;50.998;5.864;2022-10-29T02:34:10;18.40;;;6.88;;
48203;SDS011;33994;50.998;5.864;2022-10-29T02:36:55;18.15;;;7.82;;
48203;SDS011;33994;50.998;5.864;2022-10-29T02:39:41;19.08;;;6.88;;
48203;SDS011;33994;50.998;5.864;2022-10-29T02:42:26;20.45;;;7.57;;
48203;SDS011;33994;50.998;5.864;2022-10-29T02:45:12;19.98;;;7.32;;
48203;SDS011;33994;50.998;5.864;2022-10-29T02:47:57;23.45;;;7.90;;
48203;SDS011;33994;50.998;5.864;2022-10-29T02:50:43;24.58;;;7.85;;
48203;SDS011;33994;50.998;5.864;2022-10-29T02:53:28;19.73;;;7.80;;
48203;SDS011;33994;50.998;5.864;2022-10-29T02:56:13;22.15;;;6.78;;
48203;SDS011;33994;50.998;5.864;2022-10-29T02:58:59;26.02;;;9.15;;
48203;SDS011;33994;50.998;5.864;2022-10-29T03:01:44;18.58;;;8.27;;
48203;SDS011;33994;50.998;5.864;2022-10-29T03:04:30;21.38;;;7.38;;
48203;SDS011;33994;50.998;5.864;2022-10-29T03:07:15;20.58;;;7.65;;
48203;SDS011;33994;50.998;5.864;2022-10-29T03:10:02;17.63;;;7.57;;
48203;SDS011;33994;50.998;5.864;2022-10-29T03:12:48;21.13;;;8.15;;
48203;SDS011;33994;50.998;5.864;2022-10-29T03:15:34;18.70;;;7.07;;
48203;SDS011;33994;50.998;5.864;2022-10-29T03:18:19;20.13;;;8.07;;
48203;SDS011;33994;50.998;5.864;2022-10-29T03:21:05;24.30;;;6.70;;
48203;SDS011;33994;50.998;5.864;2022-10-29T03:23:50;21.42;;;8.15;;
48203;SDS011;33994;50.998;5.864;2022-10-29T03:26:36;22.65;;;8.38;;
48203;SDS011;33994;50.998;5.864;2022-10-29T03:29:21;22.63;;;8.77;;
48203;SDS011;33994;50.998;5.864;2022-10-29T03:32:07;16.48;;;7.35;;
48203;SDS011;33994;50.998;5.864;2022-10-29T03:34:52;22.50;;;7.82;;
48203;SDS011;33994;50.998;5.864;2022-10-29T03:37:37;17.40;;;7.50;;
48203;SDS011;33994;50.998;5.864;2022-10-29T03:40:23;16.95;;;7.60;;
48203;SDS011;33994;50.998;5.864;2022-10-29T03:43:09;19.10;;;8.32;;
48203;SDS011;33994;50.998;5.864;2022-10-29T03:45:55;13.88;;;6.78;;
48203;SDS011;33994;50.998;5.864;2022-10-29T03:48:42;17.17;;;7.65;;
48203;SDS011;33994;50.998;5.864;2022-10-29T03:51:27;20.25;;;6.55;;
48203;SDS011;33994;50.998;5.864;2022-10-29T03:54:13;22.92;;;8.00;;
48203;SDS011;33994;50.998;5.864;2022-10-29T03:56:58;17.40;;;7.45;;
48203;SDS011;33994;50.998;5.864;2022-10-29T03:59:43;21.58;;;7.00;;
48203;SDS011;33994;50.998;5.864;2022-10-29T04:02:29;16.98;;;7.38;;
48203;SDS011;33994;50.998;5.864;2022-10-29T04:05:15;22.88;;;7.90;;
48203;SDS011;33994;50.998;5.864;2022-10-29T04:08:00;17.20;;;7.03;;
48203;SDS011;33994;50.998;5.864;2022-10-29T04:10:46;19.23;;;7.95;;
48203;SDS011;33994;50.998;5.864;2022-10-29T04:13:32;17.05;;;6.82;;
48203;SDS011;33994;50.998;5.864;2022-10-29T04:16:18;20.70;;;7.87;;
48203;SDS011;33994;50.998;5.864;2022-10-29T04:19:04;15.18;;;6.25;;
48203;SDS011;33994;50.998;5.864;2022-10-29T04:21:49;17.90;;;8.02;;
48203;SDS011;33994;50.998;5.864;2022-10-29T04:24:35;18.02;;;7.18;;
48203;SDS011;33994;50.998;5.864;2022-10-29T04:27:20;17.08;;;7.15;;
48203;SDS011;33994;50.998;5.864;2022-10-29T04:30:06;14.55;;;7.85;;
48203;SDS011;33994;50.998;5.864;2022-10-29T04:32:55;15.37;;;6.53;;
48203;SDS011;33994;50.998;5.864;2022-10-29T04:35:42;20.52;;;7.43;;
48203;SDS011;33994;50.998;5.864;2022-10-29T04:38:27;19.67;;;7.78;;
48203;SDS011;33994;50.998;5.864;2022-10-29T04:41:13;17.02;;;6.78;;
48203;SDS011;33994;50.998;5.864;2022-10-29T04:43:58;21.42;;;7.22;;
48203;SDS011;33994;50.998;5.864;2022-10-29T04:46:44;18.73;;;7.15;;
48203;SDS011;33994;50.998;5.864;2022-10-29T04:49:29;17.17;;;6.88;;
48203;SDS011;33994;50.998;5.864;2022-10-29T04:52:14;21.38;;;6.53;;
48203;SDS011;33994;50.998;5.864;2022-10-29T04:55:00;17.58;;;6.90;;
48203;SDS011;33994;50.998;5.864;2022-10-29T04:57:49;15.85;;;5.97;;
48203;SDS011;33994;50.998;5.864;2022-10-29T05:00:34;17.50;;;6.53;;
48203;SDS011;33994;50.998;5.864;2022-10-29T05:03:20;14.27;;;6.55;;
48203;SDS011;33994;50.998;5.864;2022-10-29T05:06:05;18.95;;;6.53;;
48203;SDS011;33994;50.998;5.864;2022-10-29T05:08:51;14.15;;;6.30;;
48203;SDS011;33994;50.998;5.864;2022-10-29T05:11:37;19.67;;;6.15;;
48203;SDS011;33994;50.998;5.864;2022-10-29T05:14:22;17.83;;;6.93;;
48203;SDS011;33994;50.998;5.864;2022-10-29T05:17:08;12.45;;;5.68;;
48203;SDS011;33994;50.998;5.864;2022-10-29T05:19:53;17.02;;;5.65;;
48203;SDS011;33994;50.998;5.864;2022-10-29T05:22:39;16.50;;;6.13;;
48203;SDS011;33994;50.998;5.864;2022-10-29T05:25:24;21.33;;;6.20;;
48203;SDS011;33994;50.998;5.864;2022-10-29T05:28:11;19.58;;;6.22;;
48203;SDS011;33994;50.998;5.864;2022-10-29T05:30:59;18.55;;;5.85;;
48203;SDS011;33994;50.998;5.864;2022-10-29T05:33:45;20.02;;;6.55;;
48203;SDS011;33994;50.998;5.864;2022-10-29T05:36:30;16.02;;;6.85;;
48203;SDS011;33994;50.998;5.864;2022-10-29T05:39:16;15.93;;;6.22;;
48203;SDS011;33994;50.998;5.864;2022-10-29T05:42:01;20.33;;;5.82;;
48203;SDS011;33994;50.998;5.864;2022-10-29T05:44:47;17.77;;;6.05;;
48203;SDS011;33994;50.998;5.864;2022-10-29T05:47:32;13.02;;;5.47;;
48203;SDS011;33994;50.998;5.864;2022-10-29T05:50:18;17.30;;;5.75;;
48203;SDS011;33994;50.998;5.864;2022-10-29T05:53:04;16.67;;;5.00;;
48203;SDS011;33994;50.998;5.864;2022-10-29T05:55:53;15.40;;;6.32;;
48203;SDS011;33994;50.998;5.864;2022-10-29T05:58:39;61.75;;;11.93;;
48203;SDS011;33994;50.998;5.864;2022-10-29T06:01:26;36.55;;;8.02;;
48203;SDS011;33994;50.998;5.864;2022-10-29T06:04:11;21.67;;;6.55;;
48203;SDS011;33994;50.998;5.864;2022-10-29T06:06:57;16.30;;;5.75;;
48203;SDS011;33994;50.998;5.864;2022-10-29T06:09:42;10.90;;;4.85;;
48203;SDS011;33994;50.998;5.864;2022-10-29T06:12:30;13.35;;;5.30;;
48203;SDS011;33994;50.998;5.864;2022-10-29T06:15:16;17.80;;;5.72;;
48203;SDS011;33994;50.998;5.864;2022-10-29T06:18:02;16.88;;;5.80;;
48203;SDS011;33994;50.998;5.864;2022-10-29T06:20:47;12.30;;;5.07;;
48203;SDS011;33994;50.998;5.864;2022-10-29T06:23:33;13.85;;;5.43;;
48203;SDS011;33994;50.998;5.864;2022-10-29T06:26:18;13.38;;;5.13;;
48203;SDS011;33994;50.998;5.864;2022-10-29T06:29:03;16.05;;;5.78;;
48203;SDS011;33994;50.998;5.864;2022-10-29T06:31:49;14.82;;;6.05;;
48203;SDS011;33994;50.998;5.864;2022-10-29T06:34:34;22.85;;;6.05;;
48203;SDS011;33994;50.998;5.864;2022-10-29T06:37:20;16.00;;;6.45;;
48203;SDS011;33994;50.998;5.864;2022-10-29T06:40:05;13.00;;;5.60;;
48203;SDS011;33994;50.998;5.864;2022-10-29T06:43:01;13.88;;;5.68;;
48203;SDS011;33994;50.998;5.864;2022-10-29T06:45:48;16.98;;;5.90;;
48203;SDS011;33994;50.998;5.864;2022-10-29T06:48:33;18.17;;;6.63;;
48203;SDS011;33994;50.998;5.864;2022-10-29T06:51:19;12.60;;;5.70;;
48203;SDS011;33994;50.998;5.864;2022-10-29T06:54:06;16.55;;;5.88;;
48203;SDS011;33994;50.998;5.864;2022-10-29T06:56:51;17.15;;;5.63;;
48203;SDS011;33994;50.998;5.864;2022-10-29T06:59:36;20.40;;;7.00;;
48203;SDS011;33994;50.998;5.864;2022-10-29T07:02:22;15.48;;;5.50;;
48203;SDS011;33994;50.998;5.864;2022-10-29T07:05:07;16.33;;;5.88;;
48203;SDS011;33994;50.998;5.864;2022-10-29T07:07:53;14.48;;;5.47;;
48203;SDS011;33994;50.998;5.864;2022-10-29T07:10:40;12.63;;;4.78;;
48203;SDS011;33994;50.998;5.864;2022-10-29T07:13:26;15.55;;;5.78;;
48203;SDS011;33994;50.998;5.864;2022-10-29T07:16:11;11.75;;;4.78;;
48203;SDS011;33994;50.998;5.864;2022-10-29T07:18:57;14.10;;;4.90;;
48203;SDS011;33994;50.998;5.864;2022-10-29T07:21:42;12.88;;;5.28;;
48203;SDS011;33994;50.998;5.864;2022-10-29T07:24:28;16.48;;;5.60;;
48203;SDS011;33994;50.998;5.864;2022-10-29T07:27:13;14.25;;;4.68;;
48203;SDS011;33994;50.998;5.864;2022-10-29T07:29:59;13.63;;;5.68;;
48203;SDS011;33994;50.998;5.864;2022-10-29T07:32:44;11.77;;;5.32;;
48203;SDS011;33994;50.998;5.864;2022-10-29T07:35:30;12.18;;;5.15;;
48203;SDS011;33994;50.998;5.864;2022-10-29T07:38:16;17.40;;;6.22;;
48203;SDS011;33994;50.998;5.864;2022-10-29T07:41:01;14.88;;;6.40;;
48203;SDS011;33994;50.998;5.864;2022-10-29T07:43:47;19.67;;;7.90;;
48203;SDS011;33994;50.998;5.864;2022-10-29T07:46:33;14.77;;;7.65;;
48203;SDS011;33994;50.998;5.864;2022-10-29T07:49:19;21.13;;;8.80;;
48203;SDS011;33994;50.998;5.864;2022-10-29T07:52:04;18.58;;;8.40;;
48203;SDS011;33994;50.998;5.864;2022-10-29T07:54:50;18.25;;;6.93;;
48203;SDS011;33994;50.998;5.864;2022-10-29T07:57:35;16.52;;;6.95;;
48203;SDS011;33994;50.998;5.864;2022-10-29T08:00:21;16.17;;;6.50;;
48203;SDS011;33994;50.998;5.864;2022-10-29T08:03:06;13.60;;;6.35;;
48203;SDS011;33994;50.998;5.864;2022-10-29T08:05:55;15.55;;;5.82;;
48203;SDS011;33994;50.998;5.864;2022-10-29T08:08:41;14.48;;;6.07;;
48203;SDS011;33994;50.998;5.864;2022-10-29T08:11:26;11.55;;;5.35;;
48203;SDS011;33994;50.998;5.864;2022-10-29T08:14:12;15.23;;;5.57;;
48203;SDS011;33994;50.998;5.864;2022-10-29T08:16:57;17.30;;;5.57;;
48203;SDS011;33994;50.998;5.864;2022-10-29T08:19:43;12.48;;;6.57;;
48203;SDS011;33994;50.998;5.864;2022-10-29T08:22:29;20.30;;;5.93;;
48203;SDS011;33994;50.998;5.864;2022-10-29T08:25:15;12.87;;;3.80;;
48203;SDS011;33994;50.998;5.864;2022-10-29T08:28:01;12.07;;;5.65;;
48203;SDS011;33994;50.998;5.864;2022-10-29T08:30:49;13.48;;;5.43;;
48203;SDS011;33994;50.998;5.864;2022-10-29T08:33:34;16.08;;;5.65;;
48203;SDS011;33994;50.998;5.864;2022-10-29T08:36:20;15.50;;;4.55;;
48203;SDS011;33994;50.998;5.864;2022-10-29T08:39:05;11.15;;;4.70;;
48203;SDS011;33994;50.998;5.864;2022-10-29T08:56:43;13.45;;;4.63;;
48203;SDS011;33994;50.998;5.864;2022-10-29T08:59:35;8.38;;;4.40;;
48203;SDS011;33994;50.998;5.864;2022-10-29T09:02:25;11.98;;;4.70;;
48203;SDS011;33994;50.998;5.864;2022-10-29T09:05:14;13.40;;;4.75;;
48203;SDS011;33994;50.998;5.864;2022-10-29T09:26:47;9.10;;;3.55;;
48203;SDS011;33994;50.998;5.864;2022-10-29T09:29:49;14.20;;;4.60;;
48203;SDS011;33994;50.998;5.864;2022-10-29T09:41:15;17.15;;;4.93;;
48203;SDS011;33994;50.998;5.864;2022-10-29T09:44:19;13.68;;;4.28;;
48203;SDS011;33994;50.998;5.864;2022-10-29T09:47:14;13.52;;;4.95;;
48203;SDS011;33994;50.998;5.864;2022-10-29T09:53:11;12.95;;;5.05;;
48203;SDS011;33994;50.998;5.864;2022-10-29T09:55:57;16.08;;;5.15;;
48203;SDS011;33994;50.998;5.864;2022-10-29T09:58:43;14.55;;;4.55;;
48203;SDS011;33994;50.998;5.864;2022-10-29T10:01:33;14.75;;;4.70;;
48203;SDS011;33994;50.998;5.864;2022-10-29T10:04:29;15.23;;;4.50;;
48203;SDS011;33994;50.998;5.864;2022-10-29T10:07:21;15.48;;;4.20;;
48203;SDS011;33994;50.998;5.864;2022-10-29T10:10:16;12.88;;;4.43;;
48203;SDS011;33994;50.998;5.864;2022-10-29T10:13:05;16.23;;;4.43;;
48203;SDS011;33994;50.998;5.864;2022-10-29T10:15:58;12.25;;;3.88;;
48203;SDS011;33994;50.998;5.864;2022-10-29T10:18:45;11.13;;;3.53;;
48203;SDS011;33994;50.998;5.864;2022-10-29T10:21:32;13.30;;;4.28;;
48203;SDS011;33994;50.998;5.864;2022-10-29T10:24:27;15.20;;;3.78;;
48203;SDS011;33994;50.998;5.864;2022-10-29T10:27:24;11.90;;;4.18;;
48203;SDS011;33994;50.998;5.864;2022-10-29T10:30:14;9.15;;;3.17;;
48203;SDS011;33994;50.998;5.864;2022-10-29T10:35:54;7.50;;;3.15;;
48203;SDS011;33994;50.998;5.864;2022-10-29T10:38:49;13.02;;;3.72;;
48203;SDS011;33994;50.998;5.864;2022-10-29T10:41:37;15.07;;;3.60;;
48203;SDS011;33994;50.998;5.864;2022-10-29T10:44:25;11.05;;;3.53;;
48203;SDS011;33994;50.998;5.864;2022-10-29T10:47:12;12.80;;;4.25;;
48203;SDS011;33994;50.998;5.864;2022-10-29T10:53:18;15.60;;;3.90;;
48203;SDS011;33994;50.998;5.864;2022-10-29T10:56:05;19.15;;;4.10;;
48203;SDS011;33994;50.998;5.864;2022-10-29T10:59:04;9.73;;;3.72;;
48203;SDS011;33994;50.998;5.864;2022-10-29T11:01:55;10.17;;;3.60;;
48203;SDS011;33994;50.998;5.864;2022-10-29T11:04:43;9.52;;;3.55;;
48203;SDS011;33994;50.998;5.864;2022-10-29T11:07:34;11.85;;;4.53;;
48203;SDS011;33994;50.998;5.864;2022-10-29T11:10:29;15.07;;;3.70;;
48203;SDS011;33994;50.998;5.864;2022-10-29T11:13:23;12.18;;;3.47;;
48203;SDS011;33994;50.998;5.864;2022-10-29T11:19:25;20.38;;;4.32;;
48203;SDS011;33994;50.998;5.864;2022-10-29T11:25:39;12.27;;;3.83;;
48203;SDS011;33994;50.998;5.864;2022-10-29T11:28:50;9.18;;;3.95;;
48203;SDS011;33994;50.998;5.864;2022-10-29T11:32:03;14.45;;;4.15;;
48203;SDS011;33994;50.998;5.864;2022-10-29T11:35:07;12.98;;;3.75;;
48203;SDS011;33994;50.998;5.864;2022-10-29T11:37:57;13.02;;;4.20;;
48203;SDS011;33994;50.998;5.864;2022-10-29T11:40:49;11.23;;;3.38;;
48203;SDS011;33994;50.998;5.864;2022-10-29T11:43:41;12.75;;;3.40;;
48203;SDS011;33994;50.998;5.864;2022-10-29T11:52:45;11.52;;;3.47;;
48203;SDS011;33994;50.998;5.864;2022-10-29T12:01:48;12.25;;;3.00;;
48203;SDS011;33994;50.998;5.864;2022-10-29T12:11:18;12.68;;;3.25;;
48203;SDS011;33994;50.998;5.864;2022-10-29T12:14:20;15.48;;;3.45;;
48203;SDS011;33994;50.998;5.864;2022-10-29T12:17:14;13.18;;;3.63;;
48203;SDS011;33994;50.998;5.864;2022-10-29T12:20:18;10.85;;;3.25;;
48203;SDS011;33994;50.998;5.864;2022-10-29T12:23:15;14.18;;;3.50;;
48203;SDS011;33994;50.998;5.864;2022-10-29T12:26:14;19.05;;;3.67;;
48203;SDS011;33994;50.998;5.864;2022-10-29T12:32:24;13.25;;;4.28;;
48203;SDS011;33994;50.998;5.864;2022-10-29T12:41:30;13.43;;;3.58;;
48203;SDS011;33994;50.998;5.864;2022-10-29T12:44:36;11.40;;;3.47;;
48203;SDS011;33994;50.998;5.864;2022-10-29T12:56:27;8.30;;;3.33;;
48203;SDS011;33994;50.998;5.864;2022-10-29T13:02:18;14.93;;;4.05;;
48203;SDS011;33994;50.998;5.864;2022-10-29T13:08:16;10.25;;;3.20;;
48203;SDS011;33994;50.998;5.864;2022-10-29T13:11:17;11.55;;;3.60;;
48203;SDS011;33994;50.998;5.864;2022-10-29T13:14:07;10.55;;;2.67;;
48203;SDS011;33994;50.998;5.864;2022-10-29T13:16:53;9.90;;;3.40;;
48203;SDS011;33994;50.998;5.864;2022-10-29T13:22:51;15.75;;;3.42;;
48203;SDS011;33994;50.998;5.864;2022-10-29T13:25:41;8.23;;;2.72;;
48203;SDS011;33994;50.998;5.864;2022-10-29T13:34:05;10.95;;;2.70;;
48203;SDS011;33994;50.998;5.864;2022-10-29T13:36:50;9.45;;;3.20;;
48203;SDS011;33994;50.998;5.864;2022-10-29T13:39:35;9.48;;;3.17;;
48203;SDS011;33994;50.998;5.864;2022-10-29T13:42:21;16.30;;;3.45;;
48203;SDS011;33994;50.998;5.864;2022-10-29T13:45:09;13.52;;;3.17;;
48203;SDS011;33994;50.998;5.864;2022-10-29T13:47:59;10.20;;;3.05;;
48203;SDS011;33994;50.998;5.864;2022-10-29T13:50:49;11.35;;;3.00;;
48203;SDS011;33994;50.998;5.864;2022-10-29T13:53:46;11.18;;;3.20;;
48203;SDS011;33994;50.998;5.864;2022-10-29T13:56:38;12.93;;;3.83;;
48203;SDS011;33994;50.998;5.864;2022-10-29T13:59:33;14.52;;;4.75;;
48203;SDS011;33994;50.998;5.864;2022-10-29T14:08:43;12.57;;;3.47;;
48203;SDS011;33994;50.998;5.864;2022-10-29T14:11:40;8.73;;;3.28;;
48203;SDS011;33994;50.998;5.864;2022-10-29T14:17:20;13.50;;;4.10;;
48203;SDS011;33994;50.998;5.864;2022-10-29T14:20:23;11.20;;;3.35;;
48203;SDS011;33994;50.998;5.864;2022-10-29T14:23:11;6.65;;;3.13;;
48203;SDS011;33994;50.998;5.864;2022-10-29T14:25:58;14.07;;;3.42;;
48203;SDS011;33994;50.998;5.864;2022-10-29T14:28:47;8.77;;;2.67;;
48203;SDS011;33994;50.998;5.864;2022-10-29T14:31:32;11.27;;;4.00;;
48203;SDS011;33994;50.998;5.864;2022-10-29T14:34:25;15.35;;;4.57;;
48203;SDS011;33994;50.998;5.864;2022-10-29T14:40:16;9.68;;;3.13;;
48203;SDS011;33994;50.998;5.864;2022-10-29T14:43:03;12.77;;;4.65;;
48203;SDS011;33994;50.998;5.864;2022-10-29T14:45:49;13.65;;;3.47;;
48203;SDS011;33994;50.998;5.864;2022-10-29T14:48:36;10.35;;;3.70;;
48203;SDS011;33994;50.998;5.864;2022-10-29T14:51:22;12.68;;;3.70;;
48203;SDS011;33994;50.998;5.864;2022-10-29T14:54:13;10.07;;;3.40;;
48203;SDS011;33994;50.998;5.864;2022-10-29T14:57:05;14.65;;;3.42;;
48203;SDS011;33994;50.998;5.864;2022-10-29T14:59:56;11.23;;;3.25;;
48203;SDS011;33994;50.998;5.864;2022-10-29T15:02:45;8.98;;;3.60;;
48203;SDS011;33994;50.998;5.864;2022-10-29T15:05:33;15.68;;;4.72;;
48203;SDS011;33994;50.998;5.864;2022-10-29T15:08:23;12.77;;;3.65;;
48203;SDS011;33994;50.998;5.864;2022-10-29T15:15:05;17.20;;;4.32;;
48203;SDS011;33994;50.998;5.864;2022-10-29T15:17:33;10.50;;;3.80;;
48203;SDS011;33994;50.998;5.864;2022-10-29T15:20:23;11.48;;;3.10;;
48203;SDS011;33994;50.998;5.864;2022-10-29T15:26:21;9.68;;;3.63;;
48203;SDS011;33994;50.998;5.864;2022-10-29T15:29:08;13.50;;;4.35;;
48203;SDS011;33994;50.998;5.864;2022-10-29T15:31:55;13.73;;;3.47;;
48203;SDS011;33994;50.998;5.864;2022-10-29T15:34:46;11.20;;;3.80;;
48203;SDS011;33994;50.998;5.864;2022-10-29T15:37:40;5.20;;;2.75;;
48203;SDS011;33994;50.998;5.864;2022-10-29T15:40:28;6.80;;;3.35;;
48203;SDS011;33994;50.998;5.864;2022-10-29T15:43:27;13.65;;;4.30;;
48203;SDS011;33994;50.998;5.864;2022-10-29T15:46:24;9.63;;;3.55;;
48203;SDS011;33994;50.998;5.864;2022-10-29T15:49:14;15.60;;;3.90;;
48203;SDS011;33994;50.998;5.864;2022-10-29T15:52:00;9.23;;;3.58;;
48203;SDS011;33994;50.998;5.864;2022-10-29T15:54:45;12.63;;;3.25;;
48203;SDS011;33994;50.998;5.864;2022-10-29T15:57:31;13.55;;;3.28;;
48203;SDS011;33994;50.998;5.864;2022-10-29T16:00:18;12.80;;;3.00;;
48203;SDS011;33994;50.998;5.864;2022-10-29T16:03:25;10.00;;;3.92;;
48203;SDS011;33994;50.998;5.864;2022-10-29T16:06:11;10.32;;;3.97;;
48203;SDS011;33994;50.998;5.864;2022-10-29T16:08:59;8.50;;;2.90;;
48203;SDS011;33994;50.998;5.864;2022-10-29T16:11:44;12.25;;;3.63;;
48203;SDS011;33994;50.998;5.864;2022-10-29T16:14:30;13.03;;;3.80;;
48203;SDS011;33994;50.998;5.864;2022-10-29T16:17:16;10.93;;;3.72;;
48203;SDS011;33994;50.998;5.864;2022-10-29T16:20:04;11.60;;;3.90;;
48203;SDS011;33994;50.998;5.864;2022-10-29T16:22:50;14.63;;;3.50;;
48203;SDS011;33994;50.998;5.864;2022-10-29T16:25:35;16.70;;;4.72;;
48203;SDS011;33994;50.998;5.864;2022-10-29T16:28:21;16.13;;;3.97;;
48203;SDS011;33994;50.998;5.864;2022-10-29T16:31:09;10.15;;;3.50;;
48203;SDS011;33994;50.998;5.864;2022-10-29T16:34:03;9.93;;;3.30;;
48203;SDS011;33994;50.998;5.864;2022-10-29T16:36:50;8.50;;;3.55;;
48203;SDS011;33994;50.998;5.864;2022-10-29T16:39:36;12.23;;;3.45;;
48203;SDS011;33994;50.998;5.864;2022-10-29T16:45:16;11.43;;;4.10;;
48203;SDS011;33994;50.998;5.864;2022-10-29T16:48:06;12.65;;;3.97;;
48203;SDS011;33994;50.998;5.864;2022-10-29T16:50:51;17.23;;;4.45;;
48203;SDS011;33994;50.998;5.864;2022-10-29T16:53:37;8.68;;;2.95;;
48203;SDS011;33994;50.998;5.864;2022-10-29T16:56:22;10.82;;;3.45;;
48203;SDS011;33994;50.998;5.864;2022-10-29T16:59:08;12.98;;;4.60;;
48203;SDS011;33994;50.998;5.864;2022-10-29T17:01:53;12.75;;;3.85;;
48203;SDS011;33994;50.998;5.864;2022-10-29T17:04:39;10.90;;;3.85;;
48203;SDS011;33994;50.998;5.864;2022-10-29T17:07:24;9.85;;;3.83;;
48203;SDS011;33994;50.998;5.864;2022-10-29T17:10:10;14.57;;;3.60;;
48203;SDS011;33994;50.998;5.864;2022-10-29T17:12:55;10.40;;;3.85;;
48203;SDS011;33994;50.998;5.864;2022-10-29T17:15:41;12.57;;;5.47;;
48203;SDS011;33994;50.998;5.864;2022-10-29T17:18:26;18.83;;;6.47;;
48203;SDS011;33994;50.998;5.864;2022-10-29T17:21:12;13.80;;;6.80;;
48203;SDS011;33994;50.998;5.864;2022-10-29T17:23:57;18.15;;;6.78;;
48203;SDS011;33994;50.998;5.864;2022-10-29T17:26:43;12.88;;;4.95;;
48203;SDS011;33994;50.998;5.864;2022-10-29T17:29:29;17.42;;;4.97;;
48203;SDS011;33994;50.998;5.864;2022-10-29T17:32:15;21.43;;;5.63;;
48203;SDS011;33994;50.998;5.864;2022-10-29T17:35:00;18.65;;;5.15;;
48203;SDS011;33994;50.998;5.864;2022-10-29T17:37:46;15.43;;;4.93;;
48203;SDS011;33994;50.998;5.864;2022-10-29T17:40:31;16.30;;;6.53;;
48203;SDS011;33994;50.998;5.864;2022-10-29T17:43:17;12.50;;;4.28;;
48203;SDS011;33994;50.998;5.864;2022-10-29T17:46:02;12.18;;;4.75;;
48203;SDS011;33994;50.998;5.864;2022-10-29T17:48:48;15.93;;;5.43;;
48203;SDS011;33994;50.998;5.864;2022-10-29T17:51:34;15.50;;;4.30;;
48203;SDS011;33994;50.998;5.864;2022-10-29T17:54:19;13.37;;;4.97;;
48203;SDS011;33994;50.998;5.864;2022-10-29T17:57:05;12.95;;;4.93;;
48203;SDS011;33994;50.998;5.864;2022-10-29T17:59:50;13.80;;;4.65;;
48203;SDS011;33994;50.998;5.864;2022-10-29T18:02:36;9.43;;;3.83;;
48203;SDS011;33994;50.998;5.864;2022-10-29T18:05:21;12.32;;;4.72;;
48203;SDS011;33994;50.998;5.864;2022-10-29T18:08:07;11.90;;;4.80;;
48203;SDS011;33994;50.998;5.864;2022-10-29T18:10:52;17.33;;;5.35;;
48203;SDS011;33994;50.998;5.864;2022-10-29T18:13:45;9.32;;;4.55;;
48203;SDS011;33994;50.998;5.864;2022-10-29T18:16:31;9.05;;;3.97;;
48203;SDS011;33994;50.998;5.864;2022-10-29T18:19:17;9.70;;;5.32;;
48203;SDS011;33994;50.998;5.864;2022-10-29T18:22:02;13.75;;;4.43;;
48203;SDS011;33994;50.998;5.864;2022-10-29T18:24:48;12.70;;;4.65;;
48203;SDS011;33994;50.998;5.864;2022-10-29T18:27:33;11.73;;;4.75;;
48203;SDS011;33994;50.998;5.864;2022-10-29T18:30:19;14.05;;;4.95;;
48203;SDS011;33994;50.998;5.864;2022-10-29T18:33:05;9.20;;;4.35;;
48203;SDS011;33994;50.998;5.864;2022-10-29T18:35:54;20.35;;;6.10;;
48203;SDS011;33994;50.998;5.864;2022-10-29T18:38:40;12.68;;;4.65;;
48203;SDS011;33994;50.998;5.864;2022-10-29T18:41:27;15.93;;;5.07;;
48203;SDS011;33994;50.998;5.864;2022-10-29T18:44:12;12.02;;;4.50;;
48203;SDS011;33994;50.998;5.864;2022-10-29T18:46:58;12.77;;;5.65;;
48203;SDS011;33994;50.998;5.864;2022-10-29T18:49:43;17.02;;;5.07;;
48203;SDS011;33994;50.998;5.864;2022-10-29T18:52:29;11.50;;;4.32;;
48203;SDS011;33994;50.998;5.864;2022-10-29T18:55:14;17.05;;;5.22;;
48203;SDS011;33994;50.998;5.864;2022-10-29T18:57:59;12.32;;;5.45;;
48203;SDS011;33994;50.998;5.864;2022-10-29T19:00:45;9.85;;;4.60;;
48203;SDS011;33994;50.998;5.864;2022-10-29T19:03:31;13.60;;;4.88;;
48203;SDS011;33994;50.998;5.864;2022-10-29T19:06:17;13.30;;;4.75;;
48203;SDS011;33994;50.998;5.864;2022-10-29T19:09:04;12.55;;;4.68;;
48203;SDS011;33994;50.998;5.864;2022-10-29T19:11:51;12.95;;;4.47;;
48203;SDS011;33994;50.998;5.864;2022-10-29T19:14:37;14.90;;;5.25;;
48203;SDS011;33994;50.998;5.864;2022-10-29T19:17:22;13.02;;;6.00;;
48203;SDS011;33994;50.998;5.864;2022-10-29T19:20:08;10.00;;;4.68;;
48203;SDS011;33994;50.998;5.864;2022-10-29T19:22:54;14.10;;;5.30;;
48203;SDS011;33994;50.998;5.864;2022-10-29T19:25:40;17.00;;;5.38;;